createdAt,value
2023-05-02T00:02:17.959Z,6.27
2023-05-02T00:04:44.897Z,5.47
2023-05-02T00:07:11.958Z,6.13
2023-05-02T00:09:38.849Z,5.80
2023-05-02T00:12:05.825Z,5.60
2023-05-02T00:14:33.005Z,6.07
2023-05-02T00:16:59.911Z,5.93
2023-05-02T00:19:26.922Z,6.03
2023-05-02T00:21:53.729Z,6.43
2023-05-02T00:24:20.572Z,6.10
2023-05-02T00:26:47.515Z,5.77
2023-05-02T00:29:14.296Z,6.47
2023-05-02T00:31:42.137Z,6.03
2023-05-02T00:34:09.082Z,6.10
2023-05-02T00:36:35.979Z,5.87
2023-05-02T00:39:02.791Z,5.70
2023-05-02T00:41:29.675Z,5.97
2023-05-02T00:43:56.838Z,6.00
2023-05-02T00:46:23.880Z,5.97
2023-05-02T00:48:51.186Z,5.80
2023-05-02T00:51:18.280Z,5.60
2023-05-02T00:53:45.436Z,5.73
2023-05-02T00:56:12.227Z,5.73
2023-05-02T00:58:41.111Z,8.03
2023-05-02T01:01:27.027Z,6.57
2023-05-02T01:04:27.882Z,6.10
2023-05-02T01:07:28.169Z,6.80
2023-05-02T01:10:37.917Z,6.73
2023-05-02T01:13:10.393Z,6.30
2023-05-02T01:15:41.261Z,6.73
2023-05-02T01:18:12.178Z,6.30
2023-05-02T01:20:43.710Z,6.67
2023-05-02T01:24:07.096Z,7.80
2023-05-02T01:26:59.048Z,6.17
2023-05-02T01:29:29.673Z,8.57
2023-05-02T01:31:58.628Z,7.40
2023-05-02T01:34:27.816Z,5.93
2023-05-02T01:36:56.655Z,6.13
2023-05-02T01:39:26.175Z,7.07
2023-05-02T01:41:58.441Z,7.13
2023-05-02T01:44:27.557Z,6.77
2023-05-02T01:46:56.423Z,6.10
2023-05-02T01:49:25.437Z,7.43
2023-05-02T01:51:52.947Z,7.30
2023-05-02T01:54:23.563Z,6.13
2023-05-02T01:56:52.376Z,6.17
2023-05-02T01:59:23.183Z,6.33
2023-05-02T02:01:51.961Z,6.83
2023-05-02T02:04:21.900Z,6.10
2023-05-02T02:07:00.893Z,6.33
2023-05-02T02:09:27.774Z,6.60
2023-05-02T02:12:06.397Z,5.77
2023-05-02T02:14:59.737Z,6.30
2023-05-02T02:17:37.852Z,6.63
2023-05-02T02:20:09.882Z,6.13
2023-05-02T02:22:39.846Z,6.13
2023-05-02T02:25:12.322Z,5.33
2023-05-02T02:27:41.261Z,5.33
2023-05-02T02:30:12.029Z,6.47
2023-05-02T02:32:38.955Z,4.90
2023-05-02T02:35:07.178Z,5.30
2023-05-02T02:37:42.195Z,5.10
2023-05-02T02:40:21.213Z,5.20
2023-05-02T02:43:15.454Z,5.43
2023-05-02T02:46:15.336Z,5.20
2023-05-02T02:49:01.286Z,5.30
2023-05-02T02:51:38.987Z,5.37
2023-05-02T02:54:26.841Z,5.83
2023-05-02T02:57:07.896Z,5.70
2023-05-02T02:59:42.492Z,5.77
2023-05-02T03:02:13.257Z,5.57
2023-05-02T03:04:43.605Z,5.20
2023-05-02T03:07:10.745Z,5.63
2023-05-02T03:09:45.638Z,5.97
2023-05-02T03:12:13.208Z,6.47
2023-05-02T03:14:41.019Z,5.97
2023-05-02T03:17:10.743Z,6.13
2023-05-02T03:19:37.571Z,5.97
2023-05-02T03:22:05.835Z,5.93
2023-05-02T03:24:32.715Z,6.40
2023-05-02T03:26:59.995Z,5.90
2023-05-02T03:29:27.068Z,6.13
2023-05-02T03:31:53.884Z,5.63
2023-05-02T03:34:22.152Z,5.77
2023-05-02T03:36:49.287Z,5.87
2023-05-02T03:39:16.262Z,6.00
2023-05-02T03:41:43.914Z,6.97
2023-05-02T03:44:11.037Z,6.20
2023-05-02T03:46:38.199Z,5.50
2023-05-02T03:49:05.294Z,5.47
2023-05-02T03:51:33.897Z,6.47
2023-05-02T03:54:02.742Z,5.70
2023-05-02T03:56:29.740Z,5.43
2023-05-02T03:58:56.692Z,5.37
2023-05-02T04:01:23.658Z,5.20
2023-05-02T04:03:52.379Z,5.30
2023-05-02T04:06:19.334Z,5.83
2023-05-02T04:08:46.319Z,6.50
2023-05-02T04:11:13.126Z,5.60
2023-05-02T04:13:40.045Z,5.37
2023-05-02T04:16:07.105Z,5.37
2023-05-02T04:18:34.007Z,5.40
2023-05-02T04:21:00.836Z,5.53
2023-05-02T04:23:27.752Z,5.60
2023-05-02T04:25:56.221Z,5.63
2023-05-02T04:28:23.332Z,5.73
2023-05-02T04:30:50.606Z,5.90
2023-05-02T04:33:18.578Z,5.97
2023-05-02T04:35:46.082Z,5.63
2023-05-02T04:38:13.098Z,5.80
2023-05-02T04:40:40.175Z,6.00
2023-05-02T04:43:07.513Z,5.90
2023-05-02T04:45:37.238Z,5.63
2023-05-02T04:48:05.110Z,6.37
2023-05-02T04:50:32.342Z,6.80
2023-05-02T04:52:59.539Z,6.83
2023-05-02T04:55:26.455Z,6.27
2023-05-02T04:57:53.425Z,6.63
2023-05-02T05:00:20.731Z,6.60
2023-05-02T05:02:47.728Z,6.47
2023-05-02T05:05:15.918Z,8.73
2023-05-02T05:07:43.432Z,6.80
2023-05-02T05:10:11.457Z,5.93
2023-05-02T05:12:38.320Z,7.17
2023-05-02T05:15:05.749Z,7.07
2023-05-02T05:17:32.756Z,6.20
2023-05-02T05:19:59.864Z,6.20
2023-05-02T05:22:27.055Z,6.30
2023-05-02T05:24:54.912Z,6.40
2023-05-02T05:27:22.061Z,6.07
2023-05-02T05:29:48.908Z,6.13
2023-05-02T05:32:15.786Z,6.30
2023-05-02T05:34:42.796Z,6.20
2023-05-02T05:37:09.704Z,6.87
2023-05-02T05:39:36.540Z,6.33
2023-05-02T05:42:03.692Z,6.23
2023-05-02T05:44:31.597Z,6.30
2023-05-02T05:46:58.526Z,5.40
2023-05-02T05:49:25.405Z,6.30
2023-05-02T05:51:52.324Z,6.40
2023-05-02T05:54:19.171Z,6.83
2023-05-02T05:56:46.263Z,5.03
2023-05-02T05:59:13.550Z,5.50
2023-05-02T06:01:41.089Z,4.83
2023-05-02T06:04:08.032Z,4.93
2023-05-02T06:06:35.314Z,5.63
2023-05-02T06:09:02.561Z,5.13
2023-05-02T06:11:29.669Z,5.03
2023-05-02T06:13:56.452Z,5.33
2023-05-02T06:16:23.422Z,5.47
2023-05-02T06:18:52.807Z,4.97
2023-05-02T06:21:19.733Z,5.30
2023-05-02T06:23:46.806Z,4.97
2023-05-02T06:26:13.740Z,5.10
2023-05-02T06:28:40.583Z,5.30
2023-05-02T06:31:07.546Z,4.87
2023-05-02T06:33:35.391Z,5.90
2023-05-02T06:36:02.956Z,6.03
2023-05-02T06:38:30.014Z,4.70
2023-05-02T06:40:56.848Z,5.60
2023-05-02T06:43:23.795Z,5.47
2023-05-02T06:45:54.589Z,6.43
2023-05-02T06:48:21.876Z,5.80
2023-05-02T06:50:49.564Z,5.57
2023-05-02T06:53:16.433Z,5.63
2023-05-02T06:55:44.968Z,5.70
2023-05-02T06:58:11.934Z,5.57
2023-05-02T07:00:38.783Z,5.90
2023-05-02T07:03:05.696Z,5.33
2023-05-02T07:05:32.568Z,6.10
2023-05-02T07:07:59.637Z,5.77
2023-05-02T07:10:26.563Z,5.30
2023-05-02T07:12:53.649Z,6.30
2023-05-02T07:15:20.522Z,6.47
2023-05-02T07:17:47.822Z,6.20
2023-05-02T07:20:15.637Z,6.17
2023-05-02T07:22:43.115Z,6.17
2023-05-02T07:25:10.856Z,7.57
2023-05-02T07:27:37.784Z,6.50
2023-05-02T07:30:06.548Z,6.03
2023-05-02T07:32:33.458Z,6.20
2023-05-02T07:35:00.437Z,5.87
2023-05-02T07:37:27.395Z,6.77
2023-05-02T07:39:54.266Z,6.17
2023-05-02T07:42:21.058Z,5.83
2023-05-02T07:44:47.929Z,6.40
2023-05-02T07:47:14.753Z,6.37
2023-05-02T07:49:41.648Z,6.63
2023-05-02T07:52:08.510Z,6.60
2023-05-02T07:54:35.768Z,6.47
2023-05-02T07:57:03.540Z,7.40
2023-05-02T07:59:31.969Z,6.77
2023-05-02T08:01:58.936Z,6.63
2023-05-02T08:04:26.283Z,6.23
2023-05-02T08:06:53.421Z,6.37
2023-05-02T08:09:20.476Z,6.67
2023-05-02T08:11:47.589Z,6.90
2023-05-02T08:14:16.225Z,6.47
2023-05-02T08:16:46.076Z,6.23
2023-05-02T08:19:13.497Z,6.90
2023-05-02T08:21:40.466Z,6.80
2023-05-02T08:24:07.308Z,6.17
2023-05-02T08:26:34.170Z,6.20
2023-05-02T08:29:01.197Z,7.70
2023-05-02T08:31:28.088Z,7.17
2023-05-02T08:33:54.913Z,6.37
2023-05-02T08:36:21.970Z,6.30
2023-05-02T08:38:49.543Z,7.60
2023-05-02T08:41:18.931Z,7.00
2023-05-02T08:43:47.127Z,7.07
2023-05-02T08:46:17.284Z,6.53
2023-05-02T08:48:48.050Z,6.40
2023-05-02T08:51:17.347Z,6.53
2023-05-02T08:53:45.039Z,7.63
2023-05-02T08:56:13.063Z,7.17
2023-05-02T08:58:41.237Z,7.30
2023-05-02T09:01:17.256Z,6.50
2023-05-02T09:03:46.609Z,7.37
2023-05-02T09:06:22.112Z,7.37
2023-05-02T09:08:52.306Z,7.40
2023-05-02T09:11:20.117Z,7.80
2023-05-02T09:13:52.208Z,7.90
2023-05-02T09:16:25.922Z,7.60
2023-05-02T09:18:55.927Z,7.30
2023-05-02T09:21:39.945Z,7.93
2023-05-02T09:24:21.813Z,7.07
2023-05-02T09:27:02.885Z,6.90
2023-05-02T09:29:35.914Z,7.00
2023-05-02T09:32:05.803Z,7.03
2023-05-02T09:34:34.041Z,6.43
2023-05-02T09:37:01.536Z,6.80
2023-05-02T09:39:29.559Z,6.20
2023-05-02T09:41:57.983Z,7.10
2023-05-02T09:44:27.812Z,7.90
2023-05-02T09:46:57.419Z,7.77
2023-05-02T09:49:45.505Z,7.57
2023-05-02T09:52:18.330Z,8.33
2023-05-02T09:54:52.708Z,7.37
2023-05-02T09:57:19.928Z,7.37
2023-05-02T09:59:58.228Z,7.70
2023-05-02T10:02:25.820Z,7.57
2023-05-02T10:04:57.024Z,7.67
2023-05-02T10:07:25.169Z,7.63
2023-05-02T10:09:55.379Z,8.13
2023-05-02T10:12:25.970Z,7.80
2023-05-02T10:15:01.230Z,8.87
2023-05-02T10:17:32.061Z,7.83
2023-05-02T10:20:06.485Z,8.50
2023-05-02T10:22:37.152Z,7.73
2023-05-02T10:25:05.033Z,7.60
2023-05-02T10:27:32.873Z,8.27
2023-05-02T10:30:00.992Z,8.47
2023-05-02T10:32:34.698Z,6.97
2023-05-02T10:35:06.883Z,7.43
2023-05-02T10:37:36.704Z,7.30
2023-05-02T10:40:05.894Z,7.50
2023-05-02T10:42:39.367Z,7.40
2023-05-02T10:45:36.983Z,6.87
2023-05-02T10:48:27.433Z,7.07
2023-05-02T10:51:01.829Z,8.53
2023-05-02T10:53:37.040Z,7.73
2023-05-02T10:56:21.147Z,8.17
2023-05-02T10:58:50.327Z,6.67
2023-05-02T11:01:29.418Z,7.13
2023-05-02T11:04:01.683Z,7.57
2023-05-02T11:06:30.945Z,7.40
2023-05-02T11:09:16.124Z,7.07
2023-05-02T11:11:45.023Z,8.87
2023-05-02T11:14:38.239Z,8.03
2023-05-02T11:17:05.038Z,8.60
2023-05-02T11:19:37.841Z,7.73
2023-05-02T11:22:20.550Z,7.70
2023-05-02T11:24:49.133Z,7.80
2023-05-02T11:27:39.141Z,7.20
2023-05-02T11:30:10.690Z,9.57
2023-05-02T11:32:47.640Z,7.43
2023-05-02T11:35:24.841Z,7.20
2023-05-02T11:38:03.278Z,7.80
2023-05-02T11:40:31.676Z,7.37
2023-05-02T11:43:00.522Z,8.20
2023-05-02T11:45:37.174Z,8.33
2023-05-02T11:48:08.570Z,7.00
2023-05-02T11:50:49.620Z,6.80
2023-05-02T11:53:23.113Z,7.03
2023-05-02T11:55:56.016Z,9.13
2023-05-02T11:58:25.678Z,6.70
2023-05-02T12:00:53.898Z,7.13
2023-05-02T12:03:31.686Z,7.33
2023-05-02T12:06:12.898Z,7.83
2023-05-02T12:08:43.842Z,6.77
2023-05-02T12:11:15.544Z,6.93
2023-05-02T12:13:50.632Z,7.23
2023-05-02T12:16:18.720Z,8.00
2023-05-02T12:18:47.248Z,7.97
2023-05-02T12:21:14.371Z,7.90
2023-05-02T12:23:42.455Z,8.20
2023-05-02T12:26:25.089Z,8.40
2023-05-02T12:28:54.671Z,8.50
2023-05-02T12:31:22.517Z,8.63
2023-05-02T12:33:51.755Z,8.07
2023-05-02T12:36:19.785Z,4.50
2023-05-02T12:38:57.052Z,4.20
2023-05-02T12:41:39.406Z,3.40
2023-05-02T12:44:10.036Z,5.07
2023-05-02T12:46:37.010Z,5.00
2023-05-02T12:49:09.261Z,4.30
2023-05-02T12:51:36.807Z,5.17
2023-05-02T12:54:04.774Z,7.77
2023-05-02T12:56:40.018Z,4.77
2023-05-02T12:59:07.886Z,4.57
2023-05-02T13:01:35.476Z,4.60
2023-05-02T13:04:02.730Z,5.83
2023-05-02T13:06:29.823Z,5.87
2023-05-02T13:08:57.043Z,7.50
2023-05-02T13:11:24.193Z,5.17
2023-05-02T13:13:51.193Z,4.70
2023-05-02T13:16:18.454Z,5.17
2023-05-02T13:18:47.202Z,7.13
2023-05-02T13:21:14.733Z,5.37
2023-05-02T13:23:41.574Z,6.03
2023-05-02T13:26:08.965Z,5.23
2023-05-02T13:28:37.418Z,7.37
2023-05-02T13:31:04.554Z,6.20
2023-05-02T13:33:31.450Z,5.33
2023-05-02T13:35:58.314Z,5.47
2023-05-02T13:38:25.610Z,6.03
2023-05-02T13:40:54.163Z,6.33
2023-05-02T13:43:21.123Z,7.97
2023-05-02T13:45:48.932Z,7.23
2023-05-02T13:48:16.247Z,6.87
2023-05-02T13:50:43.326Z,6.97
2023-05-02T13:53:11.251Z,8.67
2023-05-02T13:55:38.209Z,7.63
2023-05-02T13:58:05.801Z,5.67
2023-05-02T14:00:32.917Z,4.47
2023-05-02T14:02:59.824Z,5.53
2023-05-02T14:05:26.788Z,4.07
2023-05-02T14:07:53.616Z,5.13
2023-05-02T14:10:20.456Z,5.10
2023-05-02T14:12:47.761Z,4.63
2023-05-02T14:15:14.771Z,5.37
2023-05-02T14:17:41.721Z,4.70
2023-05-02T14:20:10.491Z,6.07
2023-05-02T14:22:37.522Z,5.83
2023-05-02T14:25:05.838Z,5.57
2023-05-02T14:27:32.750Z,4.70
2023-05-02T14:29:59.575Z,5.10
2023-05-02T14:32:26.815Z,5.50
2023-05-02T14:34:53.713Z,5.60
2023-05-02T14:37:20.519Z,5.00
2023-05-02T14:39:51.138Z,4.90
2023-05-02T14:42:19.014Z,6.00
2023-05-02T14:44:46.200Z,8.37
2023-05-02T14:47:13.213Z,4.20
2023-05-02T14:49:40.230Z,4.13
2023-05-02T14:52:07.287Z,3.67
2023-05-02T14:54:34.166Z,3.83
2023-05-02T14:57:02.172Z,4.13
2023-05-02T14:59:29.916Z,3.87
2023-05-02T15:01:57.336Z,3.80
2023-05-02T15:04:26.101Z,3.30
2023-05-02T15:06:54.457Z,2.70
2023-05-02T15:09:21.581Z,3.07
2023-05-02T15:11:48.507Z,3.13
2023-05-02T15:14:15.331Z,2.20
2023-05-02T15:16:42.238Z,2.30
2023-05-02T15:19:09.053Z,2.20
2023-05-02T15:21:36.185Z,2.50
2023-05-02T15:24:03.869Z,2.70
2023-05-02T15:26:30.979Z,1.90
2023-05-02T15:28:58.128Z,2.13
2023-05-02T15:31:25.201Z,3.70
2023-05-02T15:33:52.140Z,2.20
2023-05-02T15:36:19.006Z,2.20
2023-05-02T15:38:45.884Z,2.43
2023-05-02T15:41:12.757Z,2.00
2023-05-02T15:43:39.666Z,2.33
2023-05-02T15:46:06.595Z,5.03
2023-05-02T15:48:34.687Z,6.30
2023-05-02T15:51:03.058Z,6.67
2023-05-02T15:53:30.080Z,4.67
2023-05-02T15:55:57.121Z,5.47
2023-05-02T15:58:23.913Z,3.70
2023-05-02T16:00:52.352Z,3.93
2023-05-02T16:03:19.429Z,4.90
2023-05-02T16:05:46.551Z,6.83
2023-05-02T16:08:13.593Z,7.10
2023-05-02T16:10:42.746Z,5.43
2023-05-02T16:13:09.941Z,4.50
2023-05-02T16:15:36.838Z,6.03
2023-05-02T16:18:03.977Z,5.37
2023-05-02T16:20:33.917Z,4.53
2023-05-02T16:23:00.813Z,3.03
2023-05-02T16:25:27.870Z,3.33
2023-05-02T16:27:54.808Z,3.27
2023-05-02T16:30:21.908Z,3.50
2023-05-02T16:32:48.924Z,3.50
2023-05-02T16:35:15.935Z,3.27
2023-05-02T16:37:42.944Z,3.53
2023-05-02T16:40:11.089Z,3.93
2023-05-02T16:42:39.218Z,4.20
2023-05-02T16:45:07.471Z,4.83
2023-05-02T16:47:35.688Z,3.80
2023-05-02T16:50:03.423Z,4.90
2023-05-02T16:52:30.647Z,4.23
2023-05-02T16:54:57.522Z,5.53
2023-05-02T16:57:24.434Z,4.33
2023-05-02T16:59:52.526Z,4.00
2023-05-02T17:02:21.933Z,5.10
2023-05-02T17:04:50.060Z,4.30
2023-05-02T17:07:17.529Z,4.47
2023-05-02T17:09:44.744Z,4.33
2023-05-02T17:12:12.863Z,4.10
2023-05-02T17:14:42.465Z,5.40
2023-05-02T17:17:10.098Z,5.43
2023-05-02T17:19:37.227Z,5.37
2023-05-02T17:22:05.283Z,5.10
2023-05-02T17:24:33.092Z,5.13
2023-05-02T17:27:00.936Z,5.43
2023-05-02T17:29:27.972Z,5.10
2023-05-02T17:32:00.476Z,4.87
2023-05-02T17:34:30.158Z,5.10
2023-05-02T17:36:57.009Z,3.97
2023-05-02T17:39:23.894Z,4.10
2023-05-02T17:41:50.827Z,4.13
2023-05-02T17:44:17.704Z,4.37
2023-05-02T17:46:44.694Z,4.30
2023-05-02T17:49:11.627Z,3.93
2023-05-02T17:51:38.582Z,4.07
2023-05-02T17:54:05.634Z,4.87
2023-05-02T17:56:35.012Z,4.40
2023-05-02T17:59:01.885Z,5.03
2023-05-02T18:01:28.817Z,4.43
2023-05-02T18:03:55.844Z,4.30
2023-05-02T18:06:23.118Z,4.90
2023-05-02T18:08:50.005Z,4.40
2023-05-02T18:11:18.463Z,5.90
2023-05-02T18:13:46.157Z,5.00
2023-05-02T18:16:14.061Z,4.83
2023-05-02T18:18:41.730Z,5.20
2023-05-02T18:21:09.714Z,4.80
2023-05-02T18:23:36.679Z,5.83
2023-05-02T18:26:03.895Z,4.93
2023-05-02T18:28:30.920Z,5.30
2023-05-02T18:30:57.821Z,5.77
2023-05-02T18:33:24.738Z,5.77
2023-05-02T18:35:51.583Z,5.73
2023-05-02T18:38:19.591Z,5.03
2023-05-02T18:40:46.507Z,4.93
2023-05-02T18:43:13.446Z,5.43
2023-05-02T18:45:40.560Z,5.20
2023-05-02T18:48:07.495Z,5.17
2023-05-02T18:50:34.448Z,5.07
2023-05-02T18:53:01.262Z,4.53
2023-05-02T18:55:28.096Z,4.43
2023-05-02T18:57:55.088Z,5.00
2023-05-02T19:00:23.403Z,5.57
2023-05-02T19:02:53.426Z,5.17
2023-05-02T19:05:20.473Z,6.10
2023-05-02T19:07:47.467Z,6.17
2023-05-02T19:10:14.506Z,5.50
2023-05-02T19:12:42.027Z,6.30
2023-05-02T19:15:11.278Z,5.40
2023-05-02T19:17:38.210Z,5.60
2023-05-02T19:20:06.093Z,6.30
2023-05-02T19:22:34.662Z,5.77
2023-05-02T19:25:02.146Z,11.37
2023-05-02T19:27:29.459Z,6.43
2023-05-02T19:29:58.074Z,5.53
2023-05-02T19:32:25.376Z,5.10
2023-05-02T19:34:52.286Z,5.20
2023-05-02T19:37:19.156Z,6.73
2023-05-02T19:39:46.012Z,6.43
2023-05-02T19:42:12.816Z,6.70
2023-05-02T19:44:39.656Z,6.97
2023-05-02T19:47:06.515Z,6.80
2023-05-02T19:49:33.340Z,7.17
2023-05-02T19:52:00.901Z,7.20
2023-05-02T19:54:27.782Z,8.03
2023-05-02T19:56:54.636Z,8.10
2023-05-02T19:59:21.494Z,8.17
2023-05-02T20:01:48.585Z,8.23
2023-05-02T20:04:15.560Z,8.00
2023-05-02T20:06:43.139Z,8.73
2023-05-02T20:09:11.446Z,8.70
2023-05-02T20:11:38.358Z,9.27
2023-05-02T20:14:05.234Z,9.30
2023-05-02T20:16:32.739Z,9.00
2023-05-02T20:18:59.652Z,8.63
2023-05-02T20:21:26.951Z,9.90
2023-05-02T20:23:53.788Z,9.57
2023-05-02T20:26:21.304Z,8.27
2023-05-02T20:28:48.767Z,8.10
2023-05-02T20:31:16.931Z,7.87
2023-05-02T20:33:45.974Z,7.77
2023-05-02T20:36:14.822Z,7.93
2023-05-02T20:38:42.998Z,7.57
2023-05-02T20:41:14.644Z,8.00
2023-05-02T20:43:44.580Z,7.10
2023-05-02T20:46:14.050Z,9.83
2023-05-02T20:48:41.371Z,7.80
2023-05-02T20:51:08.578Z,7.60
2023-05-02T20:53:37.688Z,7.83
2023-05-02T20:56:04.846Z,7.23
2023-05-02T20:58:31.688Z,7.03
2023-05-02T21:00:58.900Z,7.47
2023-05-02T21:03:27.561Z,6.83
2023-05-02T21:05:56.448Z,7.50
2023-05-02T21:08:23.762Z,6.70
2023-05-02T21:10:51.371Z,6.80
2023-05-02T21:13:18.236Z,6.90
2023-05-02T21:15:45.206Z,6.70
2023-05-02T21:18:12.158Z,7.20
2023-05-02T21:20:41.393Z,6.70
2023-05-02T21:23:11.113Z,6.73
2023-05-02T21:25:38.536Z,7.57
2023-05-02T21:28:05.893Z,8.70
2023-05-02T21:30:32.991Z,9.20
2023-05-02T21:32:59.949Z,8.77
2023-05-02T21:35:27.421Z,8.87
2023-05-02T21:37:54.332Z,8.30
2023-05-02T21:40:21.281Z,8.27
2023-05-02T21:42:48.127Z,7.33
2023-05-02T21:45:15.096Z,8.60
2023-05-02T21:47:42.007Z,8.10
2023-05-02T21:50:09.124Z,8.13
2023-05-02T21:52:36.294Z,8.40
2023-05-02T21:55:03.424Z,8.47
2023-05-02T21:57:30.203Z,9.40
2023-05-02T21:59:57.050Z,10.23
2023-05-02T22:02:24.072Z,10.43
2023-05-02T22:04:51.054Z,9.90
2023-05-02T22:07:17.913Z,9.93
2023-05-02T22:09:44.829Z,9.93
2023-05-02T22:12:11.759Z,9.93
2023-05-02T22:14:45.013Z,8.53
2023-05-02T22:17:13.362Z,7.87
2023-05-02T22:19:40.500Z,7.60
2023-05-02T22:22:07.583Z,7.13
2023-05-02T22:24:34.513Z,3.87
2023-05-02T22:27:01.482Z,5.37
2023-05-02T22:29:28.479Z,5.00
2023-05-02T22:31:55.704Z,4.70
2023-05-02T22:34:23.077Z,4.40
2023-05-02T22:36:50.052Z,4.90
2023-05-02T22:39:16.959Z,5.20
2023-05-02T22:41:43.894Z,6.97
2023-05-02T22:44:11.557Z,8.83
2023-05-02T22:46:38.992Z,6.67
2023-05-02T22:49:11.785Z,4.97
2023-05-02T22:51:40.320Z,4.50
2023-05-02T22:54:08.018Z,6.17
2023-05-02T22:56:35.176Z,4.20
2023-05-02T22:59:02.048Z,4.03
2023-05-02T23:01:29.045Z,5.27
2023-05-02T23:03:56.218Z,4.20
2023-05-02T23:06:23.228Z,4.87
2023-05-02T23:08:50.722Z,5.10
2023-05-02T23:11:17.705Z,5.87
2023-05-02T23:13:44.483Z,6.73
2023-05-02T23:16:11.398Z,8.20
2023-05-02T23:18:38.238Z,9.90
2023-05-02T23:21:05.264Z,8.00
2023-05-02T23:23:32.204Z,4.80
2023-05-02T23:25:59.103Z,4.83
2023-05-02T23:28:26.545Z,4.10
2023-05-02T23:30:53.859Z,4.23
2023-05-02T23:33:21.069Z,4.13
2023-05-02T23:35:48.413Z,4.40
2023-05-02T23:38:15.547Z,4.97
2023-05-02T23:40:42.481Z,4.50
2023-05-02T23:43:09.860Z,5.10
2023-05-02T23:45:36.743Z,5.07
2023-05-02T23:48:03.693Z,4.50
2023-05-02T23:50:32.411Z,4.00
2023-05-02T23:52:59.209Z,4.60
2023-05-02T23:55:26.106Z,5.30
2023-05-02T23:57:52.971Z,6.83
